Greenville, Maine
Current Conditions -  °F | °C
As of 3:53 PM on Thursday 25 Dec 2014 (Local Time) from KMLT Reporting Station
Broken Clouds Broken Clouds  
Wind Chill: 40°   Ceiling: 4800
Heat Index: 44°   Visibility: 10mi
Dew Point: 31°   Wind: 7mph
Humidity: 60%   Direction: NA
Pressure: 29.4"   Gusts: 21mph
Location:  45.44°N, 69.58°W
Report Text: KMLT 252053Z AUTO VRB06G18KT 10SM BKN048 07/M01 A2940 RMK AO2 SLP965 T00671006 53019
Loading
Personal Weather Stations






























Interactive Weather Map New forecast layout! Learn more

10-Day Weather Forecast

Advertisements
Track Severe Weather on mobile